sensor_id;sensor_type;location;lat;lon;timestamp;P1;durP1;ratioP1;P2;durP2;ratioP2
52898;SDS011;38763;53.096;6.062;2023-06-10T00:02:14;10.30;;;4.47;;
52898;SDS011;38763;53.096;6.062;2023-06-10T00:04:41;12.48;;;4.55;;
52898;SDS011;38763;53.096;6.062;2023-06-10T00:07:07;10.82;;;4.28;;
52898;SDS011;38763;53.096;6.062;2023-06-10T00:09:37;12.88;;;4.50;;
52898;SDS011;38763;53.096;6.062;2023-06-10T00:12:04;8.43;;;4.45;;
52898;SDS011;38763;53.096;6.062;2023-06-10T00:14:30;8.82;;;4.38;;
52898;SDS011;38763;53.096;6.062;2023-06-10T00:16:55;11.18;;;4.35;;
52898;SDS011;38763;53.096;6.062;2023-06-10T00:19:22;9.57;;;4.50;;
52898;SDS011;38763;53.096;6.062;2023-06-10T00:21:55;7.65;;;4.30;;
52898;SDS011;38763;53.096;6.062;2023-06-10T00:24:22;12.48;;;4.20;;
52898;SDS011;38763;53.096;6.062;2023-06-10T00:26:48;9.45;;;4.25;;
52898;SDS011;38763;53.096;6.062;2023-06-10T00:29:13;7.78;;;4.40;;
52898;SDS011;38763;53.096;6.062;2023-06-10T00:31:40;10.85;;;4.50;;
52898;SDS011;38763;53.096;6.062;2023-06-10T00:34:06;9.00;;;4.50;;
52898;SDS011;38763;53.096;6.062;2023-06-10T00:36:32;8.95;;;4.57;;
52898;SDS011;38763;53.096;6.062;2023-06-10T00:38:58;12.35;;;4.70;;
52898;SDS011;38763;53.096;6.062;2023-06-10T00:41:24;11.35;;;4.20;;
52898;SDS011;38763;53.096;6.062;2023-06-10T00:43:51;10.63;;;4.53;;
52898;SDS011;38763;53.096;6.062;2023-06-10T00:46:17;10.02;;;4.50;;
52898;SDS011;38763;53.096;6.062;2023-06-10T00:48:43;11.25;;;4.68;;
52898;SDS011;38763;53.096;6.062;2023-06-10T00:51:10;10.77;;;4.82;;
52898;SDS011;38763;53.096;6.062;2023-06-10T00:53:37;12.77;;;4.75;;
52898;SDS011;38763;53.096;6.062;2023-06-10T00:56:05;13.02;;;4.70;;
52898;SDS011;38763;53.096;6.062;2023-06-10T00:58:31;12.07;;;5.35;;
52898;SDS011;38763;53.096;6.062;2023-06-10T01:00:57;12.98;;;4.55;;
52898;SDS011;38763;53.096;6.062;2023-06-10T01:03:23;11.70;;;4.45;;
52898;SDS011;38763;53.096;6.062;2023-06-10T01:05:50;8.93;;;4.28;;
52898;SDS011;38763;53.096;6.062;2023-06-10T01:13:25;10.32;;;5.03;;
52898;SDS011;38763;53.096;6.062;2023-06-10T01:15:53;11.02;;;4.97;;
52898;SDS011;38763;53.096;6.062;2023-06-10T01:18:22;11.85;;;5.15;;
52898;SDS011;38763;53.096;6.062;2023-06-10T01:20:48;10.88;;;4.90;;
52898;SDS011;38763;53.096;6.062;2023-06-10T01:23:14;8.90;;;4.45;;
52898;SDS011;38763;53.096;6.062;2023-06-10T01:25:58;11.35;;;4.90;;
52898;SDS011;38763;53.096;6.062;2023-06-10T01:28:31;11.18;;;4.45;;
52898;SDS011;38763;53.096;6.062;2023-06-10T01:31:23;11.07;;;5.28;;
52898;SDS011;38763;53.096;6.062;2023-06-10T01:33:58;11.68;;;4.90;;
52898;SDS011;38763;53.096;6.062;2023-06-10T01:36:25;10.85;;;5.22;;
52898;SDS011;38763;53.096;6.062;2023-06-10T01:38:52;9.02;;;4.10;;
52898;SDS011;38763;53.096;6.062;2023-06-10T01:41:18;8.43;;;4.68;;
52898;SDS011;38763;53.096;6.062;2023-06-10T01:43:46;11.82;;;5.00;;
52898;SDS011;38763;53.096;6.062;2023-06-10T01:46:12;12.30;;;5.05;;
52898;SDS011;38763;53.096;6.062;2023-06-10T01:48:38;10.65;;;4.82;;
52898;SDS011;38763;53.096;6.062;2023-06-10T01:51:04;9.10;;;4.60;;
52898;SDS011;38763;53.096;6.062;2023-06-10T01:53:30;9.95;;;4.72;;
52898;SDS011;38763;53.096;6.062;2023-06-10T01:55:56;13.75;;;5.18;;
52898;SDS011;38763;53.096;6.062;2023-06-10T01:58:21;8.90;;;4.72;;
52898;SDS011;38763;53.096;6.062;2023-06-10T02:00:47;10.32;;;4.70;;
52898;SDS011;38763;53.096;6.062;2023-06-10T02:03:13;10.50;;;4.45;;
52898;SDS011;38763;53.096;6.062;2023-06-10T02:05:38;11.50;;;5.13;;
52898;SDS011;38763;53.096;6.062;2023-06-10T02:08:04;11.35;;;4.85;;
52898;SDS011;38763;53.096;6.062;2023-06-10T02:10:30;9.73;;;4.85;;
52898;SDS011;38763;53.096;6.062;2023-06-10T02:12:56;11.93;;;4.85;;
52898;SDS011;38763;53.096;6.062;2023-06-10T02:15:21;11.13;;;4.88;;
52898;SDS011;38763;53.096;6.062;2023-06-10T02:17:47;13.82;;;4.82;;
52898;SDS011;38763;53.096;6.062;2023-06-10T02:20:16;14.32;;;5.10;;
52898;SDS011;38763;53.096;6.062;2023-06-10T02:22:41;10.93;;;5.22;;
52898;SDS011;38763;53.096;6.062;2023-06-10T02:25:07;10.48;;;4.95;;
52898;SDS011;38763;53.096;6.062;2023-06-10T02:27:33;11.88;;;5.03;;
52898;SDS011;38763;53.096;6.062;2023-06-10T02:29:59;10.13;;;4.85;;
52898;SDS011;38763;53.096;6.062;2023-06-10T02:32:25;11.95;;;5.28;;
52898;SDS011;38763;53.096;6.062;2023-06-10T02:34:50;12.07;;;5.53;;
52898;SDS011;38763;53.096;6.062;2023-06-10T02:37:16;10.15;;;5.35;;
52898;SDS011;38763;53.096;6.062;2023-06-10T02:39:42;11.43;;;5.40;;
52898;SDS011;38763;53.096;6.062;2023-06-10T02:42:08;10.82;;;5.57;;
52898;SDS011;38763;53.096;6.062;2023-06-10T02:44:33;9.68;;;5.38;;
52898;SDS011;38763;53.096;6.062;2023-06-10T02:46:59;14.07;;;5.63;;
52898;SDS011;38763;53.096;6.062;2023-06-10T02:49:25;13.73;;;5.78;;
52898;SDS011;38763;53.096;6.062;2023-06-10T02:51:53;13.10;;;5.90;;
52898;SDS011;38763;53.096;6.062;2023-06-10T02:54:20;15.73;;;5.38;;
52898;SDS011;38763;53.096;6.062;2023-06-10T02:56:45;11.82;;;5.95;;
52898;SDS011;38763;53.096;6.062;2023-06-10T02:59:13;12.98;;;5.90;;
52898;SDS011;38763;53.096;6.062;2023-06-10T03:01:39;11.27;;;5.88;;
52898;SDS011;38763;53.096;6.062;2023-06-10T03:04:06;12.35;;;6.03;;
52898;SDS011;38763;53.096;6.062;2023-06-10T03:06:32;11.18;;;6.50;;
52898;SDS011;38763;53.096;6.062;2023-06-10T03:08:59;11.70;;;6.43;;
52898;SDS011;38763;53.096;6.062;2023-06-10T03:11:25;10.20;;;6.15;;
52898;SDS011;38763;53.096;6.062;2023-06-10T03:13:51;14.27;;;6.47;;
52898;SDS011;38763;53.096;6.062;2023-06-10T03:16:18;17.00;;;6.75;;
52898;SDS011;38763;53.096;6.062;2023-06-10T03:18:44;10.23;;;6.07;;
52898;SDS011;38763;53.096;6.062;2023-06-10T03:21:10;11.95;;;6.68;;
52898;SDS011;38763;53.096;6.062;2023-06-10T03:23:36;10.85;;;6.47;;
52898;SDS011;38763;53.096;6.062;2023-06-10T03:26:03;11.02;;;6.80;;
52898;SDS011;38763;53.096;6.062;2023-06-10T03:28:30;13.07;;;7.15;;
52898;SDS011;38763;53.096;6.062;2023-06-10T03:30:56;16.92;;;6.72;;
52898;SDS011;38763;53.096;6.062;2023-06-10T03:33:22;11.50;;;6.60;;
52898;SDS011;38763;53.096;6.062;2023-06-10T03:35:47;12.35;;;6.57;;
52898;SDS011;38763;53.096;6.062;2023-06-10T03:38:13;13.63;;;6.53;;
52898;SDS011;38763;53.096;6.062;2023-06-10T03:40:39;13.30;;;6.07;;
52898;SDS011;38763;53.096;6.062;2023-06-10T03:43:05;13.07;;;5.90;;
52898;SDS011;38763;53.096;6.062;2023-06-10T03:45:30;11.23;;;5.97;;
52898;SDS011;38763;53.096;6.062;2023-06-10T03:47:57;11.70;;;5.78;;
52898;SDS011;38763;53.096;6.062;2023-06-10T03:50:23;12.38;;;5.68;;
52898;SDS011;38763;53.096;6.062;2023-06-10T03:52:49;12.23;;;5.53;;
52898;SDS011;38763;53.096;6.062;2023-06-10T03:55:15;12.85;;;5.32;;
52898;SDS011;38763;53.096;6.062;2023-06-10T03:57:42;11.52;;;5.32;;
52898;SDS011;38763;53.096;6.062;2023-06-10T04:00:08;10.85;;;5.30;;
52898;SDS011;38763;53.096;6.062;2023-06-10T04:02:37;12.65;;;5.72;;
52898;SDS011;38763;53.096;6.062;2023-06-10T04:05:11;11.80;;;5.50;;
52898;SDS011;38763;53.096;6.062;2023-06-10T04:07:37;10.95;;;5.40;;
52898;SDS011;38763;53.096;6.062;2023-06-10T04:10:05;11.68;;;5.63;;
52898;SDS011;38763;53.096;6.062;2023-06-10T04:12:32;10.90;;;5.05;;
52898;SDS011;38763;53.096;6.062;2023-06-10T04:14:57;12.90;;;4.85;;
52898;SDS011;38763;53.096;6.062;2023-06-10T04:17:23;8.05;;;4.88;;
52898;SDS011;38763;53.096;6.062;2023-06-10T04:19:49;9.05;;;4.70;;
52898;SDS011;38763;53.096;6.062;2023-06-10T04:22:15;10.18;;;4.70;;
52898;SDS011;38763;53.096;6.062;2023-06-10T04:24:41;10.57;;;4.70;;
52898;SDS011;38763;53.096;6.062;2023-06-10T04:27:07;13.90;;;4.70;;
52898;SDS011;38763;53.096;6.062;2023-06-10T04:29:33;12.27;;;5.18;;
52898;SDS011;38763;53.096;6.062;2023-06-10T04:31:59;14.57;;;4.55;;
52898;SDS011;38763;53.096;6.062;2023-06-10T04:34:26;12.70;;;4.80;;
52898;SDS011;38763;53.096;6.062;2023-06-10T04:36:52;10.05;;;5.07;;
52898;SDS011;38763;53.096;6.062;2023-06-10T04:39:18;12.43;;;5.30;;
52898;SDS011;38763;53.096;6.062;2023-06-10T04:41:44;15.73;;;5.50;;
52898;SDS011;38763;53.096;6.062;2023-06-10T04:44:11;10.45;;;4.97;;
52898;SDS011;38763;53.096;6.062;2023-06-10T04:46:37;9.93;;;4.70;;
52898;SDS011;38763;53.096;6.062;2023-06-10T04:49:03;11.43;;;5.32;;
52898;SDS011;38763;53.096;6.062;2023-06-10T04:51:30;11.93;;;4.63;;
52898;SDS011;38763;53.096;6.062;2023-06-10T04:53:56;12.35;;;4.90;;
52898;SDS011;38763;53.096;6.062;2023-06-10T04:56:22;9.77;;;5.10;;
52898;SDS011;38763;53.096;6.062;2023-06-10T04:58:49;11.20;;;5.60;;
52898;SDS011;38763;53.096;6.062;2023-06-10T05:01:15;12.05;;;5.60;;
52898;SDS011;38763;53.096;6.062;2023-06-10T05:03:40;12.77;;;5.80;;
52898;SDS011;38763;53.096;6.062;2023-06-10T05:06:06;13.45;;;5.55;;
52898;SDS011;38763;53.096;6.062;2023-06-10T05:08:32;13.60;;;6.15;;
52898;SDS011;38763;53.096;6.062;2023-06-10T05:10:58;12.90;;;6.20;;
52898;SDS011;38763;53.096;6.062;2023-06-10T05:13:24;13.27;;;6.13;;
52898;SDS011;38763;53.096;6.062;2023-06-10T05:15:49;12.18;;;6.10;;
52898;SDS011;38763;53.096;6.062;2023-06-10T05:18:15;12.73;;;5.97;;
52898;SDS011;38763;53.096;6.062;2023-06-10T05:20:40;12.23;;;6.15;;
52898;SDS011;38763;53.096;6.062;2023-06-10T05:23:06;15.60;;;6.10;;
52898;SDS011;38763;53.096;6.062;2023-06-10T05:25:32;15.23;;;6.20;;
52898;SDS011;38763;53.096;6.062;2023-06-10T05:27:58;14.20;;;6.25;;
52898;SDS011;38763;53.096;6.062;2023-06-10T05:30:24;14.63;;;6.55;;
52898;SDS011;38763;53.096;6.062;2023-06-10T05:32:51;12.23;;;6.18;;
52898;SDS011;38763;53.096;6.062;2023-06-10T05:35:17;13.93;;;6.00;;
52898;SDS011;38763;53.096;6.062;2023-06-10T05:37:43;12.65;;;5.78;;
52898;SDS011;38763;53.096;6.062;2023-06-10T05:40:09;15.15;;;6.43;;
52898;SDS011;38763;53.096;6.062;2023-06-10T05:42:36;12.02;;;6.22;;
52898;SDS011;38763;53.096;6.062;2023-06-10T05:45:02;12.10;;;5.47;;
52898;SDS011;38763;53.096;6.062;2023-06-10T05:47:28;13.07;;;5.85;;
52898;SDS011;38763;53.096;6.062;2023-06-10T05:49:54;13.82;;;5.60;;
52898;SDS011;38763;53.096;6.062;2023-06-10T05:52:20;14.52;;;5.30;;
52898;SDS011;38763;53.096;6.062;2023-06-10T05:54:45;14.40;;;5.55;;
52898;SDS011;38763;53.096;6.062;2023-06-10T05:57:11;10.70;;;5.35;;
52898;SDS011;38763;53.096;6.062;2023-06-10T05:59:37;14.95;;;5.22;;
52898;SDS011;38763;53.096;6.062;2023-06-10T06:02:02;9.55;;;5.22;;
52898;SDS011;38763;53.096;6.062;2023-06-10T06:04:28;12.98;;;4.80;;
52898;SDS011;38763;53.096;6.062;2023-06-10T06:06:54;15.85;;;5.55;;
52898;SDS011;38763;53.096;6.062;2023-06-10T06:09:19;10.07;;;4.32;;
52898;SDS011;38763;53.096;6.062;2023-06-10T06:11:45;9.30;;;4.97;;
52898;SDS011;38763;53.096;6.062;2023-06-10T06:14:11;12.23;;;5.20;;
52898;SDS011;38763;53.096;6.062;2023-06-10T06:16:36;15.30;;;5.53;;
52898;SDS011;38763;53.096;6.062;2023-06-10T06:19:03;11.77;;;4.88;;
52898;SDS011;38763;53.096;6.062;2023-06-10T06:21:29;8.77;;;4.43;;
52898;SDS011;38763;53.096;6.062;2023-06-10T06:23:54;13.88;;;5.07;;
52898;SDS011;38763;53.096;6.062;2023-06-10T06:26:20;11.93;;;4.97;;
52898;SDS011;38763;53.096;6.062;2023-06-10T06:28:46;11.05;;;4.90;;
52898;SDS011;38763;53.096;6.062;2023-06-10T06:31:11;14.27;;;5.40;;
52898;SDS011;38763;53.096;6.062;2023-06-10T06:33:37;10.80;;;4.35;;
52898;SDS011;38763;53.096;6.062;2023-06-10T06:36:03;11.77;;;4.78;;
52898;SDS011;38763;53.096;6.062;2023-06-10T06:38:29;11.63;;;5.05;;
52898;SDS011;38763;53.096;6.062;2023-06-10T06:40:54;9.10;;;4.63;;
52898;SDS011;38763;53.096;6.062;2023-06-10T06:43:20;12.02;;;4.43;;
52898;SDS011;38763;53.096;6.062;2023-06-10T06:45:46;12.13;;;5.00;;
52898;SDS011;38763;53.096;6.062;2023-06-10T06:48:12;12.18;;;4.47;;
52898;SDS011;38763;53.096;6.062;2023-06-10T06:50:37;8.43;;;4.13;;
52898;SDS011;38763;53.096;6.062;2023-06-10T06:53:03;11.27;;;4.95;;
52898;SDS011;38763;53.096;6.062;2023-06-10T06:55:29;11.02;;;4.95;;
52898;SDS011;38763;53.096;6.062;2023-06-10T06:57:55;11.23;;;4.72;;
52898;SDS011;38763;53.096;6.062;2023-06-10T07:00:21;13.50;;;5.22;;
52898;SDS011;38763;53.096;6.062;2023-06-10T07:02:47;9.45;;;4.03;;
52898;SDS011;38763;53.096;6.062;2023-06-10T07:05:13;8.27;;;4.00;;
52898;SDS011;38763;53.096;6.062;2023-06-10T07:07:39;10.27;;;4.32;;
52898;SDS011;38763;53.096;6.062;2023-06-10T07:10:05;9.75;;;4.10;;
52898;SDS011;38763;53.096;6.062;2023-06-10T07:12:31;9.90;;;4.35;;
52898;SDS011;38763;53.096;6.062;2023-06-10T07:14:56;9.73;;;4.05;;
52898;SDS011;38763;53.096;6.062;2023-06-10T07:17:22;8.80;;;4.30;;
52898;SDS011;38763;53.096;6.062;2023-06-10T07:19:48;10.18;;;3.80;;
52898;SDS011;38763;53.096;6.062;2023-06-10T07:22:13;7.88;;;3.50;;
52898;SDS011;38763;53.096;6.062;2023-06-10T07:24:39;7.43;;;3.63;;
52898;SDS011;38763;53.096;6.062;2023-06-10T07:27:05;8.93;;;3.72;;
52898;SDS011;38763;53.096;6.062;2023-06-10T07:29:32;10.00;;;3.60;;
52898;SDS011;38763;53.096;6.062;2023-06-10T07:31:57;9.00;;;3.63;;
52898;SDS011;38763;53.096;6.062;2023-06-10T07:34:23;7.63;;;3.50;;
52898;SDS011;38763;53.096;6.062;2023-06-10T07:36:49;8.27;;;3.92;;
52898;SDS011;38763;53.096;6.062;2023-06-10T07:39:14;10.02;;;3.50;;
52898;SDS011;38763;53.096;6.062;2023-06-10T07:41:40;7.47;;;3.65;;
52898;SDS011;38763;53.096;6.062;2023-06-10T07:44:06;7.32;;;3.63;;
52898;SDS011;38763;53.096;6.062;2023-06-10T07:46:31;8.85;;;3.60;;
52898;SDS011;38763;53.096;6.062;2023-06-10T07:48:57;9.90;;;3.63;;
52898;SDS011;38763;53.096;6.062;2023-06-10T07:51:23;8.77;;;3.40;;
52898;SDS011;38763;53.096;6.062;2023-06-10T07:53:49;10.70;;;3.83;;
52898;SDS011;38763;53.096;6.062;2023-06-10T07:56:14;9.77;;;3.55;;
52898;SDS011;38763;53.096;6.062;2023-06-10T07:58:40;8.63;;;3.65;;
52898;SDS011;38763;53.096;6.062;2023-06-10T08:01:06;6.50;;;3.60;;
52898;SDS011;38763;53.096;6.062;2023-06-10T08:03:32;11.55;;;3.47;;
52898;SDS011;38763;53.096;6.062;2023-06-10T08:05:58;7.80;;;3.40;;
52898;SDS011;38763;53.096;6.062;2023-06-10T08:08:24;11.45;;;3.10;;
52898;SDS011;38763;53.096;6.062;2023-06-10T08:10:49;8.18;;;3.53;;
52898;SDS011;38763;53.096;6.062;2023-06-10T08:13:15;7.82;;;3.28;;
52898;SDS011;38763;53.096;6.062;2023-06-10T08:15:41;8.50;;;3.60;;
52898;SDS011;38763;53.096;6.062;2023-06-10T08:18:06;10.90;;;3.25;;
52898;SDS011;38763;53.096;6.062;2023-06-10T08:20:32;9.75;;;3.10;;
52898;SDS011;38763;53.096;6.062;2023-06-10T08:22:58;8.85;;;3.50;;
52898;SDS011;38763;53.096;6.062;2023-06-10T08:25:23;9.10;;;3.63;;
52898;SDS011;38763;53.096;6.062;2023-06-10T08:27:49;7.00;;;3.10;;
52898;SDS011;38763;53.096;6.062;2023-06-10T08:30:15;4.95;;;2.88;;
52898;SDS011;38763;53.096;6.062;2023-06-10T08:32:41;7.55;;;3.08;;
52898;SDS011;38763;53.096;6.062;2023-06-10T08:35:07;7.28;;;3.22;;
52898;SDS011;38763;53.096;6.062;2023-06-10T08:37:33;7.20;;;3.33;;
52898;SDS011;38763;53.096;6.062;2023-06-10T08:39:58;9.43;;;3.25;;
52898;SDS011;38763;53.096;6.062;2023-06-10T08:42:26;6.95;;;3.20;;
52898;SDS011;38763;53.096;6.062;2023-06-10T08:44:58;9.68;;;3.20;;
52898;SDS011;38763;53.096;6.062;2023-06-10T08:47:28;8.55;;;3.28;;
52898;SDS011;38763;53.096;6.062;2023-06-10T08:49:56;6.03;;;2.90;;
52898;SDS011;38763;53.096;6.062;2023-06-10T08:52:28;7.22;;;2.92;;
52898;SDS011;38763;53.096;6.062;2023-06-10T08:55:00;6.90;;;3.40;;
52898;SDS011;38763;53.096;6.062;2023-06-10T08:57:29;8.77;;;3.38;;
52898;SDS011;38763;53.096;6.062;2023-06-10T08:59:56;6.22;;;2.95;;
52898;SDS011;38763;53.096;6.062;2023-06-10T09:02:23;7.13;;;3.33;;
52898;SDS011;38763;53.096;6.062;2023-06-10T09:04:50;9.00;;;3.28;;
52898;SDS011;38763;53.096;6.062;2023-06-10T09:07:17;7.07;;;3.10;;
52898;SDS011;38763;53.096;6.062;2023-06-10T09:09:43;11.05;;;3.58;;
52898;SDS011;38763;53.096;6.062;2023-06-10T09:12:13;5.22;;;3.00;;
52898;SDS011;38763;53.096;6.062;2023-06-10T09:14:39;7.18;;;2.95;;
52898;SDS011;38763;53.096;6.062;2023-06-10T09:17:06;8.20;;;3.25;;
52898;SDS011;38763;53.096;6.062;2023-06-10T09:19:32;7.85;;;3.10;;
52898;SDS011;38763;53.096;6.062;2023-06-10T09:21:58;8.40;;;3.38;;
52898;SDS011;38763;53.096;6.062;2023-06-10T09:24:24;5.68;;;2.90;;
52898;SDS011;38763;53.096;6.062;2023-06-10T09:26:50;5.80;;;3.20;;
52898;SDS011;38763;53.096;6.062;2023-06-10T09:29:31;7.45;;;2.90;;
52898;SDS011;38763;53.096;6.062;2023-06-10T09:32:09;7.93;;;3.03;;
52898;SDS011;38763;53.096;6.062;2023-06-10T09:34:35;6.88;;;2.95;;
52898;SDS011;38763;53.096;6.062;2023-06-10T09:37:01;6.28;;;2.83;;
52898;SDS011;38763;53.096;6.062;2023-06-10T09:39:27;4.80;;;2.75;;
52898;SDS011;38763;53.096;6.062;2023-06-10T09:41:53;6.20;;;2.80;;
52898;SDS011;38763;53.096;6.062;2023-06-10T09:44:19;7.40;;;3.05;;
52898;SDS011;38763;53.096;6.062;2023-06-10T09:46:49;6.47;;;3.45;;
52898;SDS011;38763;53.096;6.062;2023-06-10T09:49:19;6.65;;;2.40;;
52898;SDS011;38763;53.096;6.062;2023-06-10T09:51:51;5.18;;;2.50;;
52898;SDS011;38763;53.096;6.062;2023-06-10T09:54:18;5.72;;;2.72;;
52898;SDS011;38763;53.096;6.062;2023-06-10T09:56:47;5.95;;;2.72;;
52898;SDS011;38763;53.096;6.062;2023-06-10T09:59:27;5.05;;;2.63;;
52898;SDS011;38763;53.096;6.062;2023-06-10T10:01:55;5.45;;;2.50;;
52898;SDS011;38763;53.096;6.062;2023-06-10T10:04:24;5.65;;;2.75;;
52898;SDS011;38763;53.096;6.062;2023-06-10T10:06:50;5.93;;;2.40;;
52898;SDS011;38763;53.096;6.062;2023-06-10T10:09:16;5.53;;;2.47;;
52898;SDS011;38763;53.096;6.062;2023-06-10T10:11:41;5.22;;;2.50;;
52898;SDS011;38763;53.096;6.062;2023-06-10T10:14:09;5.22;;;2.70;;
52898;SDS011;38763;53.096;6.062;2023-06-10T10:16:40;5.15;;;2.60;;
52898;SDS011;38763;53.096;6.062;2023-06-10T10:19:17;5.37;;;2.43;;
52898;SDS011;38763;53.096;6.062;2023-06-10T10:21:55;5.95;;;2.60;;
52898;SDS011;38763;53.096;6.062;2023-06-10T10:27:33;7.30;;;2.80;;
52898;SDS011;38763;53.096;6.062;2023-06-10T10:30:05;6.30;;;2.90;;
52898;SDS011;38763;53.096;6.062;2023-06-10T10:32:38;6.60;;;2.47;;
52898;SDS011;38763;53.096;6.062;2023-06-10T10:35:32;4.45;;;2.05;;
52898;SDS011;38763;53.096;6.062;2023-06-10T10:37:58;8.05;;;2.30;;
52898;SDS011;38763;53.096;6.062;2023-06-10T10:40:25;4.78;;;2.25;;
52898;SDS011;38763;53.096;6.062;2023-06-10T10:42:55;7.80;;;2.28;;
52898;SDS011;38763;53.096;6.062;2023-06-10T10:45:21;6.28;;;2.30;;
52898;SDS011;38763;53.096;6.062;2023-06-10T10:47:51;5.10;;;2.60;;
52898;SDS011;38763;53.096;6.062;2023-06-10T10:50:19;4.88;;;2.30;;
52898;SDS011;38763;53.096;6.062;2023-06-10T10:52:53;5.28;;;2.33;;
52898;SDS011;38763;53.096;6.062;2023-06-10T10:55:30;4.50;;;2.20;;
52898;SDS011;38763;53.096;6.062;2023-06-10T10:58:02;6.53;;;2.50;;
52898;SDS011;38763;53.096;6.062;2023-06-10T11:00:32;5.80;;;2.53;;
52898;SDS011;38763;53.096;6.062;2023-06-10T11:05:35;6.88;;;2.50;;
52898;SDS011;38763;53.096;6.062;2023-06-10T11:08:03;6.82;;;2.80;;
52898;SDS011;38763;53.096;6.062;2023-06-10T11:10:34;5.95;;;2.95;;
52898;SDS011;38763;53.096;6.062;2023-06-10T11:13:19;7.88;;;3.00;;
52898;SDS011;38763;53.096;6.062;2023-06-10T11:15:47;6.78;;;2.47;;
52898;SDS011;38763;53.096;6.062;2023-06-10T11:18:22;5.25;;;2.20;;
52898;SDS011;38763;53.096;6.062;2023-06-10T11:20:53;7.63;;;2.63;;
52898;SDS011;38763;53.096;6.062;2023-06-10T11:33:46;7.43;;;2.60;;
52898;SDS011;38763;53.096;6.062;2023-06-10T11:36:13;4.90;;;2.28;;
52898;SDS011;38763;53.096;6.062;2023-06-10T11:38:43;6.13;;;2.47;;
52898;SDS011;38763;53.096;6.062;2023-06-10T11:41:10;6.95;;;3.10;;
52898;SDS011;38763;53.096;6.062;2023-06-10T11:43:40;6.65;;;2.83;;
52898;SDS011;38763;53.096;6.062;2023-06-10T11:46:09;7.78;;;2.90;;
52898;SDS011;38763;53.096;6.062;2023-06-10T11:48:36;4.88;;;2.30;;
52898;SDS011;38763;53.096;6.062;2023-06-10T11:51:05;5.60;;;2.17;;
52898;SDS011;38763;53.096;6.062;2023-06-10T11:53:34;5.47;;;2.25;;
52898;SDS011;38763;53.096;6.062;2023-06-10T11:56:00;6.45;;;2.03;;
52898;SDS011;38763;53.096;6.062;2023-06-10T11:58:26;5.70;;;2.45;;
52898;SDS011;38763;53.096;6.062;2023-06-10T12:00:52;4.80;;;2.33;;
52898;SDS011;38763;53.096;6.062;2023-06-10T12:03:19;4.57;;;2.45;;
52898;SDS011;38763;53.096;6.062;2023-06-10T12:05:57;6.95;;;2.90;;
52898;SDS011;38763;53.096;6.062;2023-06-10T12:08:30;7.30;;;2.75;;
52898;SDS011;38763;53.096;6.062;2023-06-10T12:10:57;5.57;;;2.50;;
52898;SDS011;38763;53.096;6.062;2023-06-10T12:13:23;7.22;;;3.03;;
52898;SDS011;38763;53.096;6.062;2023-06-10T12:15:52;5.40;;;2.60;;
52898;SDS011;38763;53.096;6.062;2023-06-10T12:20:45;7.00;;;2.65;;
52898;SDS011;38763;53.096;6.062;2023-06-10T12:23:12;6.38;;;2.65;;
52898;SDS011;38763;53.096;6.062;2023-06-10T12:25:38;5.45;;;2.67;;
52898;SDS011;38763;53.096;6.062;2023-06-10T12:28:04;5.95;;;2.53;;
52898;SDS011;38763;53.096;6.062;2023-06-10T12:30:31;8.70;;;2.60;;
52898;SDS011;38763;53.096;6.062;2023-06-10T12:32:57;7.28;;;2.80;;
52898;SDS011;38763;53.096;6.062;2023-06-10T12:35:27;8.45;;;3.00;;
52898;SDS011;38763;53.096;6.062;2023-06-10T12:38:03;6.07;;;2.40;;
52898;SDS011;38763;53.096;6.062;2023-06-10T12:42:57;5.55;;;2.80;;
52898;SDS011;38763;53.096;6.062;2023-06-10T12:45:30;6.45;;;2.90;;
52898;SDS011;38763;53.096;6.062;2023-06-10T12:50:34;7.72;;;2.75;;
52898;SDS011;38763;53.096;6.062;2023-06-10T12:53:02;9.05;;;2.72;;
52898;SDS011;38763;53.096;6.062;2023-06-10T12:55:28;10.75;;;2.90;;
52898;SDS011;38763;53.096;6.062;2023-06-10T12:57:54;5.00;;;2.40;;
52898;SDS011;38763;53.096;6.062;2023-06-10T13:00:21;6.07;;;2.53;;
52898;SDS011;38763;53.096;6.062;2023-06-10T13:02:48;6.15;;;2.50;;
52898;SDS011;38763;53.096;6.062;2023-06-10T13:05:16;7.95;;;2.72;;
52898;SDS011;38763;53.096;6.062;2023-06-10T13:07:43;4.90;;;2.50;;
52898;SDS011;38763;53.096;6.062;2023-06-10T13:10:09;6.70;;;2.63;;
52898;SDS011;38763;53.096;6.062;2023-06-10T13:12:35;7.00;;;2.70;;
52898;SDS011;38763;53.096;6.062;2023-06-10T13:15:02;6.15;;;2.38;;
52898;SDS011;38763;53.096;6.062;2023-06-10T13:17:28;5.35;;;2.20;;
52898;SDS011;38763;53.096;6.062;2023-06-10T13:19:53;8.52;;;2.45;;
52898;SDS011;38763;53.096;6.062;2023-06-10T13:22:19;4.35;;;2.45;;
52898;SDS011;38763;53.096;6.062;2023-06-10T13:24:45;5.32;;;2.50;;
52898;SDS011;38763;53.096;6.062;2023-06-10T13:27:11;5.78;;;2.60;;
52898;SDS011;38763;53.096;6.062;2023-06-10T13:29:39;8.60;;;2.58;;
52898;SDS011;38763;53.096;6.062;2023-06-10T13:32:05;5.18;;;2.38;;
52898;SDS011;38763;53.096;6.062;2023-06-10T13:34:31;8.05;;;2.80;;
52898;SDS011;38763;53.096;6.062;2023-06-10T13:36:57;6.90;;;2.53;;
52898;SDS011;38763;53.096;6.062;2023-06-10T13:39:22;9.40;;;3.00;;
52898;SDS011;38763;53.096;6.062;2023-06-10T13:41:48;6.82;;;2.72;;
52898;SDS011;38763;53.096;6.062;2023-06-10T13:44:14;7.85;;;3.08;;
52898;SDS011;38763;53.096;6.062;2023-06-10T13:46:40;6.90;;;3.20;;
52898;SDS011;38763;53.096;6.062;2023-06-10T13:49:06;7.80;;;3.00;;
52898;SDS011;38763;53.096;6.062;2023-06-10T13:51:31;9.85;;;3.22;;
52898;SDS011;38763;53.096;6.062;2023-06-10T13:53:57;8.55;;;3.30;;
52898;SDS011;38763;53.096;6.062;2023-06-10T13:56:22;9.60;;;3.05;;
52898;SDS011;38763;53.096;6.062;2023-06-10T13:58:48;7.53;;;3.42;;
52898;SDS011;38763;53.096;6.062;2023-06-10T14:01:14;8.00;;;3.15;;
52898;SDS011;38763;53.096;6.062;2023-06-10T14:03:40;7.75;;;3.25;;
52898;SDS011;38763;53.096;6.062;2023-06-10T14:06:05;8.07;;;3.53;;
52898;SDS011;38763;53.096;6.062;2023-06-10T14:08:31;9.18;;;3.65;;
52898;SDS011;38763;53.096;6.062;2023-06-10T14:10:57;8.63;;;3.53;;
52898;SDS011;38763;53.096;6.062;2023-06-10T14:13:23;9.98;;;3.58;;
52898;SDS011;38763;53.096;6.062;2023-06-10T14:15:49;8.52;;;3.70;;
52898;SDS011;38763;53.096;6.062;2023-06-10T14:18:14;9.73;;;3.35;;
52898;SDS011;38763;53.096;6.062;2023-06-10T14:20:40;8.68;;;3.25;;
52898;SDS011;38763;53.096;6.062;2023-06-10T14:23:06;8.52;;;3.30;;
52898;SDS011;38763;53.096;6.062;2023-06-10T14:25:31;8.88;;;3.60;;
52898;SDS011;38763;53.096;6.062;2023-06-10T14:27:57;7.47;;;3.47;;
52898;SDS011;38763;53.096;6.062;2023-06-10T14:30:23;7.50;;;3.67;;
52898;SDS011;38763;53.096;6.062;2023-06-10T14:32:48;8.50;;;3.30;;
52898;SDS011;38763;53.096;6.062;2023-06-10T14:35:14;6.90;;;3.38;;
52898;SDS011;38763;53.096;6.062;2023-06-10T14:37:40;10.43;;;3.90;;
52898;SDS011;38763;53.096;6.062;2023-06-10T14:40:05;6.95;;;3.50;;
52898;SDS011;38763;53.096;6.062;2023-06-10T14:42:32;9.30;;;3.30;;
52898;SDS011;38763;53.096;6.062;2023-06-10T14:44:57;9.40;;;3.10;;
52898;SDS011;38763;53.096;6.062;2023-06-10T14:47:23;7.78;;;2.85;;
52898;SDS011;38763;53.096;6.062;2023-06-10T14:49:50;6.45;;;3.35;;
52898;SDS011;38763;53.096;6.062;2023-06-10T14:52:15;7.35;;;3.15;;
52898;SDS011;38763;53.096;6.062;2023-06-10T14:54:41;8.60;;;3.50;;
52898;SDS011;38763;53.096;6.062;2023-06-10T14:57:07;7.72;;;3.55;;
52898;SDS011;38763;53.096;6.062;2023-06-10T14:59:33;6.43;;;3.17;;
52898;SDS011;38763;53.096;6.062;2023-06-10T15:01:59;6.75;;;3.30;;
52898;SDS011;38763;53.096;6.062;2023-06-10T15:04:26;5.60;;;2.80;;
52898;SDS011;38763;53.096;6.062;2023-06-10T15:06:53;6.32;;;2.70;;
52898;SDS011;38763;53.096;6.062;2023-06-10T15:09:18;9.65;;;3.38;;
52898;SDS011;38763;53.096;6.062;2023-06-10T15:11:44;6.28;;;3.00;;